createdAt,value
2019-02-21T00:01:45.750Z,20.63
2019-02-21T00:05:52.685Z,19.03
2019-02-21T00:09:59.521Z,18.10
2019-02-21T00:14:07.650Z,17.50
2019-02-21T00:18:14.503Z,16.97
2019-02-21T00:22:21.314Z,17.77
2019-02-21T00:26:28.371Z,17.43
2019-02-21T00:30:35.663Z,18.33
2019-02-21T00:34:42.511Z,18.47
2019-02-21T00:38:49.345Z,17.03
2019-02-21T00:42:56.144Z,16.90
2019-02-21T00:47:02.990Z,16.87
2019-02-21T00:51:09.873Z,17.53
2019-02-21T00:55:16.881Z,16.30
2019-02-21T00:59:23.776Z,15.80
2019-02-21T01:03:30.576Z,18.73
2019-02-21T01:07:37.609Z,18.67
2019-02-21T01:11:44.489Z,20.27
2019-02-21T01:15:51.303Z,19.50
2019-02-21T01:19:58.321Z,18.23
2019-02-21T01:24:05.476Z,18.03
2019-02-21T01:28:12.427Z,17.80
2019-02-21T01:32:19.228Z,18.07
2019-02-21T01:36:26.177Z,18.47
2019-02-21T01:40:33.228Z,18.60
2019-02-21T01:44:40.170Z,18.83
2019-02-21T01:48:47.113Z,19.77
2019-02-21T01:52:55.047Z,19.47
2019-02-21T01:57:02.090Z,20.17
2019-02-21T02:01:09.220Z,20.03
2019-02-21T02:05:16.309Z,19.37
2019-02-21T02:09:23.229Z,19.93
2019-02-21T02:13:30.038Z,18.57
2019-02-21T02:17:36.864Z,20.40
2019-02-21T02:21:43.802Z,20.70
2019-02-21T02:25:50.713Z,20.07
2019-02-21T02:29:57.655Z,19.23
2019-02-21T02:34:05.614Z,20.43
2019-02-21T02:38:12.639Z,19.70
2019-02-21T02:42:19.503Z,20.33
2019-02-21T02:46:26.357Z,20.77
2019-02-21T02:50:33.339Z,20.57
2019-02-21T02:54:40.209Z,19.47
2019-02-21T02:58:47.191Z,21.57
2019-02-21T03:02:54.130Z,22.60
2019-02-21T03:07:01.258Z,23.47
2019-02-21T03:11:10.475Z,22.23
2019-02-21T03:15:17.600Z,20.63
2019-02-21T03:19:24.863Z,23.00
2019-02-21T03:23:31.729Z,21.03
2019-02-21T03:27:38.808Z,21.17
2019-02-21T03:31:54.282Z,21.30
2019-02-21T03:35:54.499Z,21.77
2019-02-21T03:40:02.677Z,20.00
2019-02-21T03:44:10.598Z,19.40
2019-02-21T03:48:17.639Z,20.20
2019-02-21T03:52:24.518Z,18.97
2019-02-21T03:56:31.442Z,19.30
2019-02-21T04:00:38.746Z,19.17
2019-02-21T04:04:45.621Z,17.67
2019-02-21T04:08:52.545Z,17.87
2019-02-21T04:12:59.470Z,18.53
2019-02-21T04:17:06.371Z,19.60
2019-02-21T04:21:13.328Z,19.73
2019-02-21T04:25:20.221Z,19.53
2019-02-21T04:29:27.072Z,18.43
2019-02-21T04:33:35.195Z,19.77
2019-02-21T04:37:42.185Z,18.97
2019-02-21T04:41:49.688Z,18.97
2019-02-21T04:45:56.658Z,19.57
2019-02-21T04:50:03.573Z,20.23
2019-02-21T04:54:10.432Z,22.67
2019-02-21T04:58:17.350Z,19.93
2019-02-21T05:02:29.431Z,20.53
2019-02-21T05:06:34.989Z,21.60
2019-02-21T05:10:43.145Z,22.80
2019-02-21T05:14:50.017Z,24.50
2019-02-21T05:18:56.822Z,25.17
2019-02-21T05:23:03.733Z,25.43
2019-02-21T05:27:15.410Z,24.33
2019-02-21T05:31:47.066Z,24.87
2019-02-21T05:36:05.282Z,24.57
2019-02-21T05:40:45.421Z,24.60
2019-02-21T05:45:29.565Z,24.60
2019-02-21T05:49:42.140Z,23.30
2019-02-21T05:54:08.027Z,24.57
2019-02-21T05:58:31.811Z,24.43
2019-02-21T06:02:56.057Z,24.30
2019-02-21T06:07:29.049Z,24.00
2019-02-21T06:11:54.838Z,26.17
2019-02-21T06:16:21.942Z,27.03
2019-02-21T06:20:46.649Z,26.80
2019-02-21T06:25:18.306Z,28.87
2019-02-21T06:29:40.297Z,25.87
2019-02-21T06:33:49.383Z,25.03
2019-02-21T06:37:55.852Z,26.77
2019-02-21T06:42:02.801Z,25.13
2019-02-21T06:46:09.714Z,25.53
2019-02-21T06:50:26.432Z,24.93
2019-02-21T06:54:25.287Z,26.10
2019-02-21T06:58:32.329Z,26.13
2019-02-21T07:02:41.159Z,24.10
2019-02-21T07:06:48.222Z,26.17
2019-02-21T07:11:05.958Z,26.13
2019-02-21T07:15:07.473Z,24.00
2019-02-21T07:19:14.641Z,23.83
2019-02-21T07:23:22.256Z,25.33
2019-02-21T07:27:31.290Z,25.80
2019-02-21T07:31:40.663Z,33.73
2019-02-21T07:35:47.914Z,25.13
2019-02-21T07:39:54.923Z,25.27
2019-02-21T07:44:11.672Z,25.80
2019-02-21T07:48:10.554Z,25.50
2019-02-21T07:52:17.709Z,26.00
2019-02-21T07:56:24.536Z,25.80
2019-02-21T08:00:35.710Z,24.53
2019-02-21T08:04:49.791Z,24.10
2019-02-21T08:08:56.855Z,27.33
2019-02-21T08:13:03.735Z,26.73
2019-02-21T08:17:10.629Z,26.77
2019-02-21T08:21:17.549Z,24.63
2019-02-21T08:25:24.601Z,25.40
2019-02-21T08:29:32.898Z,26.27
2019-02-21T08:33:58.559Z,26.73
2019-02-21T08:38:03.127Z,33.53
2019-02-21T08:42:10.160Z,27.17
2019-02-21T08:46:18.299Z,27.00
2019-02-21T08:50:25.584Z,26.43
2019-02-21T08:54:33.715Z,25.73
2019-02-21T08:58:40.902Z,26.50
2019-02-21T09:02:47.986Z,26.07
2019-02-21T09:06:55.237Z,26.27
2019-02-21T09:11:04.014Z,27.10
2019-02-21T09:15:14.871Z,27.43
2019-02-21T09:19:23.402Z,26.50
2019-02-21T09:23:30.437Z,26.27
2019-02-21T09:27:37.357Z,27.03
2019-02-21T09:31:44.432Z,25.47
2019-02-21T09:35:51.270Z,25.50
2019-02-21T09:39:58.351Z,26.20
2019-02-21T09:44:05.302Z,25.13
2019-02-21T09:48:12.280Z,25.80
2019-02-21T09:52:20.145Z,26.53
2019-02-21T09:56:30.334Z,25.97
2019-02-21T10:00:36.146Z,26.53
2019-02-21T10:04:43.142Z,25.43
2019-02-21T10:08:50.049Z,26.07
2019-02-21T10:12:56.927Z,26.33
2019-02-21T10:17:03.889Z,25.77
2019-02-21T10:21:10.990Z,26.20
2019-02-21T10:25:24.318Z,25.97
2019-02-21T10:29:31.194Z,26.47
2019-02-21T10:33:46.512Z,24.60
2019-02-21T10:37:46.875Z,26.07
2019-02-21T10:41:55.603Z,26.87
2019-02-21T10:46:02.670Z,26.37
2019-02-21T10:50:14.300Z,25.83
2019-02-21T10:54:21.235Z,26.50
2019-02-21T10:58:29.380Z,26.80
2019-02-21T11:02:36.273Z,24.70
2019-02-21T11:06:43.212Z,27.07
2019-02-21T11:10:50.286Z,23.53
2019-02-21T11:14:57.143Z,25.77
2019-02-21T11:19:04.061Z,23.43
2019-02-21T11:23:12.720Z,24.87
2019-02-21T11:27:19.825Z,23.97
2019-02-21T11:31:27.921Z,25.33
2019-02-21T11:35:35.016Z,25.17
2019-02-21T11:39:42.039Z,26.63
2019-02-21T11:43:49.023Z,25.93
2019-02-21T11:47:55.975Z,24.67
2019-02-21T11:52:09.825Z,25.57
2019-02-21T11:56:11.905Z,27.10
2019-02-21T12:00:25.383Z,25.97
2019-02-21T12:04:32.384Z,25.50
2019-02-21T12:08:39.522Z,26.00
2019-02-21T12:12:46.653Z,24.67
2019-02-21T12:16:53.878Z,24.13
2019-02-21T12:21:00.911Z,25.80
2019-02-21T12:25:10.101Z,25.10
2019-02-21T12:29:18.054Z,23.53
2019-02-21T12:33:25.290Z,23.97
2019-02-21T12:37:32.615Z,24.43
2019-02-21T12:41:39.560Z,21.70
2019-02-21T12:45:49.322Z,28.90
2019-02-21T12:49:56.317Z,23.60
2019-02-21T12:54:04.652Z,23.20
2019-02-21T12:58:12.490Z,22.00
2019-02-21T13:02:19.339Z,22.83
2019-02-21T13:06:29.012Z,22.17
2019-02-21T13:10:36.027Z,22.40
2019-02-21T13:14:43.015Z,20.37
2019-02-21T13:18:49.999Z,22.47
2019-02-21T13:22:56.829Z,21.97
2019-02-21T13:27:03.819Z,22.43
2019-02-21T13:31:10.756Z,22.70
2019-02-21T13:35:20.149Z,23.57
2019-02-21T13:39:26.999Z,21.23
2019-02-21T13:43:33.928Z,22.87
2019-02-21T13:47:41.012Z,22.87
2019-02-21T13:51:48.032Z,21.17
2019-02-21T13:55:55.300Z,21.70
2019-02-21T14:00:02.554Z,22.10
2019-02-21T14:04:11.588Z,23.27
2019-02-21T14:08:18.805Z,23.30
2019-02-21T14:12:26.646Z,24.57
2019-02-21T14:16:45.722Z,22.67
2019-02-21T14:20:45.597Z,23.80
2019-02-21T14:24:51.590Z,38.60
2019-02-21T14:29:00.180Z,23.60
2019-02-21T14:33:20.325Z,23.53
2019-02-21T14:37:31.912Z,23.23
2019-02-21T14:41:45.617Z,23.43
2019-02-21T14:45:52.817Z,23.20
2019-02-21T14:50:00.052Z,23.43
2019-02-21T14:54:07.322Z,23.10
2019-02-21T14:58:14.313Z,23.93
2019-02-21T15:02:22.266Z,23.23
2019-02-21T15:06:29.673Z,22.03
2019-02-21T15:10:36.861Z,23.27
2019-02-21T15:14:43.745Z,22.27
2019-02-21T15:18:50.809Z,24.67
2019-02-21T15:22:57.773Z,22.43
2019-02-21T15:27:08.389Z,22.07
2019-02-21T15:31:13.398Z,22.23
2019-02-21T15:35:23.563Z,23.33
2019-02-21T15:39:30.530Z,22.60
2019-02-21T15:43:37.593Z,20.70
2019-02-21T15:47:44.571Z,23.07
2019-02-21T15:51:51.584Z,22.83
2019-02-21T15:55:58.421Z,23.97
2019-02-21T16:00:07.239Z,22.20
2019-02-21T16:04:14.278Z,22.13
2019-02-21T16:08:21.301Z,22.13
2019-02-21T16:12:28.832Z,22.40
2019-02-21T16:16:35.901Z,23.90
2019-02-21T16:20:48.477Z,23.00
2019-02-21T16:24:55.938Z,22.80
2019-02-21T16:29:02.987Z,23.43
2019-02-21T16:33:09.909Z,23.17
2019-02-21T16:37:16.905Z,23.50
2019-02-21T16:41:23.786Z,24.60
2019-02-21T17:01:26.482Z,24.03
2019-02-21T17:05:33.602Z,24.63
2019-02-21T17:09:40.637Z,26.17
2019-02-21T17:13:47.644Z,23.13
2019-02-21T17:17:54.597Z,24.53
2019-02-21T17:22:06.719Z,24.63
2019-02-21T17:26:13.769Z,25.43
2019-02-21T17:30:21.001Z,27.30
2019-02-21T17:34:28.140Z,26.00
2019-02-21T17:38:37.753Z,25.00
2019-02-21T17:42:44.973Z,25.33
2019-02-21T17:46:52.019Z,24.77
2019-02-21T17:51:00.307Z,24.20
2019-02-21T17:55:08.130Z,23.73
2019-02-21T17:59:15.068Z,23.43
2019-02-21T18:03:23.274Z,25.70
2019-02-21T18:07:36.383Z,25.03
2019-02-21T18:11:39.148Z,25.40
2019-02-21T18:15:46.374Z,27.20
2019-02-21T18:19:53.875Z,26.70
2019-02-21T18:24:00.960Z,24.70
2019-02-21T18:28:08.513Z,26.53
2019-02-21T18:32:15.577Z,25.70
2019-02-21T18:36:22.567Z,27.23
2019-02-21T18:40:29.697Z,25.77
2019-02-21T18:44:36.575Z,25.90
2019-02-21T18:48:43.606Z,26.03
2019-02-21T18:52:50.555Z,28.57
2019-02-21T18:56:57.608Z,28.33
2019-02-21T19:01:04.637Z,29.97
2019-02-21T19:05:11.780Z,30.97
2019-02-21T19:09:18.990Z,29.83
2019-02-21T19:13:25.913Z,31.00
2019-02-21T19:17:32.820Z,31.70
2019-02-21T19:21:40.002Z,30.90
2019-02-21T19:25:47.182Z,31.07
2019-02-21T19:29:54.143Z,30.87
2019-02-21T19:34:01.093Z,30.03
2019-02-21T19:38:10.794Z,30.60
2019-02-21T19:42:17.160Z,31.80
2019-02-21T19:46:26.249Z,30.40
2019-02-21T19:50:33.557Z,30.70
2019-02-21T19:54:40.502Z,29.00
2019-02-21T19:58:47.508Z,31.03
2019-02-21T20:02:54.902Z,30.47
2019-02-21T20:07:02.095Z,29.57
2019-02-21T20:11:09.241Z,30.53
2019-02-21T20:15:15.737Z,30.37
2019-02-21T20:19:23.743Z,28.93
2019-02-21T20:23:30.558Z,30.33
2019-02-21T20:27:37.499Z,28.63
2019-02-21T20:31:44.556Z,29.00
2019-02-21T20:35:51.863Z,30.20
2019-02-21T20:39:58.947Z,28.27
2019-02-21T20:44:06.121Z,28.60
2019-02-21T20:48:13.142Z,29.40
2019-02-21T20:52:20.213Z,30.77
2019-02-21T20:56:27.213Z,29.70
2019-02-21T21:00:34.226Z,29.30
2019-02-21T21:04:41.321Z,29.90
2019-02-21T21:08:48.255Z,28.30
2019-02-21T21:12:55.334Z,29.73
2019-02-21T21:17:02.309Z,28.93
2019-02-21T21:21:09.262Z,30.67
2019-02-21T21:25:16.524Z,29.60
2019-02-21T21:29:23.399Z,30.37
2019-02-21T21:33:30.243Z,30.70
2019-02-21T21:37:37.254Z,28.80
2019-02-21T21:41:44.384Z,31.27
2019-02-21T21:45:51.706Z,31.00
2019-02-21T21:49:59.019Z,32.40
2019-02-21T21:54:05.966Z,31.57
2019-02-21T21:58:13.114Z,32.13
2019-02-21T22:02:20.019Z,32.17
2019-02-21T22:06:27.044Z,30.33
2019-02-21T22:10:33.968Z,30.20
2019-02-21T22:14:40.795Z,30.07
2019-02-21T22:18:47.757Z,29.03
2019-02-21T22:22:55.555Z,29.37
2019-02-21T22:27:02.645Z,27.60
2019-02-21T22:31:09.538Z,27.00
2019-02-21T22:35:16.430Z,27.20
2019-02-21T22:39:23.291Z,27.63
2019-02-21T22:43:30.211Z,28.03
2019-02-21T22:47:37.030Z,28.73
2019-02-21T22:51:43.880Z,27.53
2019-02-21T22:55:50.755Z,26.40
2019-02-21T22:59:57.861Z,27.60
2019-02-21T23:05:35.626Z,28.77
2019-02-21T23:09:42.509Z,28.07
2019-02-21T23:13:49.907Z,30.67
2019-02-21T23:17:56.785Z,28.80
2019-02-21T23:22:03.555Z,29.37
2019-02-21T23:26:11.493Z,27.43
2019-02-21T23:30:18.350Z,27.57
2019-02-21T23:34:35.117Z,28.57
2019-02-21T23:38:41.992Z,28.23
2019-02-21T23:42:48.852Z,28.27
2019-02-21T23:46:55.977Z,28.87
2019-02-21T23:51:03.039Z,30.90
2019-02-21T23:55:11.052Z,32.33
2019-02-21T23:59:17.844Z,31.43
